SBAN

Base Aérea Airport

Anápolis, Brazil
TAF SBAN 211600Z 2118/2206 12005KT 9999 SCT037 FEW043TCU TX30/2118Z TN21/2205Z PROB30 2118/2120 VCSH SCT037 FEW043TCU BECMG 2120/2123 09007KT 9999 FEW035 BECMG 2202/2204 CAVOK RMK PDS
Issued Valid From Valid To
Jan-21 @ 16:00 UTC
(4 hours ago)
Jan-21 @ 18:00 UTC
(2 hours ago)
Jan-22 @ 06:00 UTC
(in 10 hours)
Expired Click to View Jan-21 @ 18:00 to Jan-21 @ 20:00
TAF SBAN 211600Z 2118/2206 12005KT 9999 SCT037 FEW043TCU TX30/2118Z TN21/2205Z
Wind Visibility Clouds
120° at 5 knots 10,000+ meters
  • Scattered at 3,700' AGL
  • Few at 4,300' AGL
Expired Click to View Jan-21 @ 18:00 to Jan-21 @ 20:00
PROB30 2118/2120 VCSH SCT037 FEW043TCU
Clouds
  • Scattered at 3,700' AGL
  • Few at 4,300' AGL
Becoming Jan-21 @ 20:00 to Jan-22 @ 02:00
BECMG 2120/2123 09007KT 9999 FEW035
Wind Visibility Clouds
90° at 7 knots 10,000+ meters
  • Few at 3,500' AGL
Becoming Jan-22 @ 02:00 to Jan-22 @ 06:00
BECMG 2202/2204 CAVOK RMK PDS
Wind Visibility Clouds Conditions
90° at 7 knots 10,000+ meters
  • No significant clouds
TAF SBAN 211600Z 2118/2206 12005KT 9999 SCT037 FEW043TCU TX30/2118Z TN21/2205Z PROB30 2118/2120 VCSH SCT037 FEW043TCU BECMG 2120/2123 09007KT 9999 FEW035 BECMG 2202/2204 CAVOK RMK PDS
Issued Jan-21 @ 16:00 UTC
(4 hours ago)
Valid From Jan-21 @ 18:00 UTC
(2 hours ago)
Valid To Jan-22 @ 06:00 UTC
(in 10 hours)
Jan-21 @ 18:00 - Jan-21 @ 20:00
Wind Visibility
120° at 5 knots 10,000+ meters
Clouds
  • Scattered at 3,700' AGL
  • Few at 4,300' AGL
Jan-21 @ 18:00 - Jan-21 @ 20:00
Clouds
  • Scattered at 3,700' AGL
  • Few at 4,300' AGL
Becoming Jan-21 @ 20:00 - Jan-22 @ 02:00
Wind Visibility
90° at 7 knots 10,000+ meters
Clouds
  • Few at 3,500' AGL
Becoming Jan-22 @ 02:00 - Jan-22 @ 06:00
Wind Visibility
90° at 7 knots 10,000+ meters
Clouds
  • No significant clouds
Conditions